createdAt,value
2018-03-04T00:02:47.000Z,37.3
2018-03-04T00:12:47.000Z,37.2
2018-03-04T00:22:47.000Z,36.6
2018-03-04T00:32:47.000Z,34.3
2018-03-04T00:42:47.000Z,36.4
2018-03-04T00:52:47.000Z,36.6
2018-03-04T01:02:47.000Z,36.9
2018-03-04T01:12:47.000Z,37.1
2018-03-04T01:22:47.000Z,36.9
2018-03-04T01:32:47.000Z,37.1
2018-03-04T01:42:47.000Z,38.1
2018-03-04T01:52:47.000Z,37.8
2018-03-04T02:02:48.000Z,37.6
2018-03-04T02:12:47.000Z,27.4
2018-03-04T02:22:47.000Z,26.9
2018-03-04T02:42:47.000Z,27.3
2018-03-04T02:52:48.000Z,28
2018-03-04T03:02:47.000Z,27.9
2018-03-04T03:12:47.000Z,28
2018-03-04T03:22:47.000Z,28.2
2018-03-04T03:32:47.000Z,28.4
2018-03-04T03:42:47.000Z,28.5
2018-03-04T03:52:48.000Z,28.7
2018-03-04T04:02:48.000Z,28.9
2018-03-04T04:12:48.000Z,29.2
2018-03-04T04:22:48.000Z,29.4
2018-03-04T04:32:48.000Z,30
2018-03-04T04:42:48.000Z,30.3
2018-03-04T04:52:48.000Z,30.8
2018-03-04T05:02:48.000Z,31.1
2018-03-04T05:12:48.000Z,31.5
2018-03-04T05:22:48.000Z,31.7
2018-03-04T05:32:48.000Z,31.8
2018-03-04T05:42:48.000Z,31.9
2018-03-04T05:52:48.000Z,32.1
2018-03-04T06:02:48.000Z,32
2018-03-04T06:12:48.000Z,32.2
2018-03-04T06:22:48.000Z,32.2
2018-03-04T06:32:48.000Z,32.4
2018-03-04T06:42:48.000Z,32.4
2018-03-04T06:52:48.000Z,32.8
2018-03-04T07:02:48.000Z,33.1
2018-03-04T07:12:48.000Z,33
2018-03-04T07:22:48.000Z,33.3
2018-03-04T07:32:48.000Z,33.5
2018-03-04T07:42:48.000Z,33.7
2018-03-04T07:52:48.000Z,33.9
2018-03-04T08:02:48.000Z,34.2
2018-03-04T08:12:48.000Z,38.1
2018-03-04T08:22:48.000Z,39.3
2018-03-04T08:32:48.000Z,37.9
2018-03-04T08:42:48.000Z,37.6
2018-03-04T08:52:48.000Z,36.8
2018-03-04T09:02:48.000Z,37.2
2018-03-04T09:12:48.000Z,36.9
2018-03-04T09:22:48.000Z,36.7
2018-03-04T09:32:48.000Z,36.6
2018-03-04T09:42:48.000Z,36.4
2018-03-04T09:52:48.000Z,36.1
2018-03-04T10:02:48.000Z,36.1
2018-03-04T10:12:48.000Z,36.1
2018-03-04T10:22:48.000Z,35.9
2018-03-04T10:32:48.000Z,35.8
2018-03-04T10:42:48.000Z,35.8
2018-03-04T10:52:48.000Z,35.8
2018-03-04T11:02:49.000Z,35.8
2018-03-04T11:12:48.000Z,35.8
2018-03-04T11:22:49.000Z,35.7
2018-03-04T11:32:49.000Z,35.7
2018-03-04T11:42:49.000Z,35.8
2018-03-04T11:52:49.000Z,35.9
2018-03-04T12:02:49.000Z,35.9
2018-03-04T12:12:49.000Z,36
2018-03-04T12:22:49.000Z,35.9
2018-03-04T12:32:49.000Z,36
2018-03-04T12:42:49.000Z,36.1
2018-03-04T12:52:49.000Z,36
2018-03-04T13:02:49.000Z,36.1
2018-03-04T13:12:49.000Z,36.1
2018-03-04T13:22:49.000Z,36.2
2018-03-04T13:32:49.000Z,36.3
2018-03-04T13:42:49.000Z,36.4
2018-03-04T13:52:49.000Z,36.3
2018-03-04T14:02:49.000Z,36.4
2018-03-04T14:12:49.000Z,36.3
2018-03-04T14:22:49.000Z,36.4
2018-03-04T14:32:49.000Z,36.5
2018-03-04T14:42:49.000Z,36.5
2018-03-04T14:52:49.000Z,36.5
2018-03-04T15:02:49.000Z,36.5
2018-03-04T15:12:49.000Z,36.6
2018-03-04T15:22:49.000Z,36.5
2018-03-04T15:32:49.000Z,36.6
2018-03-04T15:42:49.000Z,36.6
2018-03-04T15:52:49.000Z,36.6
2018-03-04T16:02:49.000Z,36.7
2018-03-04T16:12:49.000Z,36.5
2018-03-04T16:22:49.000Z,37.2
2018-03-04T16:32:49.000Z,38.1
2018-03-04T16:42:50.000Z,38.8
2018-03-04T16:52:49.000Z,38.8
2018-03-04T17:02:50.000Z,39.1
2018-03-04T17:12:49.000Z,39
2018-03-04T17:22:49.000Z,39
2018-03-04T17:32:49.000Z,38.8
2018-03-04T17:42:49.000Z,38.6
2018-03-04T17:52:49.000Z,38.5
2018-03-04T18:02:49.000Z,38.6
2018-03-04T18:12:49.000Z,38.4
2018-03-04T18:22:50.000Z,38.4
2018-03-04T18:32:50.000Z,38.3
2018-03-04T18:42:50.000Z,38.2
2018-03-04T18:52:50.000Z,38.3
2018-03-04T19:02:50.000Z,38.2
2018-03-04T19:12:50.000Z,39.4
2018-03-04T19:22:50.000Z,39.4
2018-03-04T19:32:50.000Z,39.3
2018-03-04T19:42:50.000Z,39.3
2018-03-04T19:52:50.000Z,38.9
2018-03-04T20:02:50.000Z,39
2018-03-04T20:12:50.000Z,38.4
2018-03-04T20:22:51.000Z,38.5
2018-03-04T20:32:50.000Z,38.6
2018-03-04T20:42:50.000Z,38.5
2018-03-04T20:52:50.000Z,38.5
2018-03-04T21:02:50.000Z,38.5
2018-03-04T21:12:51.000Z,38.2
2018-03-04T21:22:50.000Z,38.1
2018-03-04T21:32:50.000Z,38
2018-03-04T21:42:50.000Z,38.5
2018-03-04T21:52:50.000Z,37.8
2018-03-04T22:02:51.000Z,38.4
2018-03-04T22:12:50.000Z,39
2018-03-04T22:22:50.000Z,39.5
2018-03-04T22:42:50.000Z,39.6
2018-03-04T22:52:50.000Z,39.9
2018-03-04T23:02:53.000Z,39.7
2018-03-04T23:12:50.000Z,36.6
2018-03-04T23:22:50.000Z,36.7
2018-03-04T23:32:50.000Z,37.1
2018-03-04T23:42:50.000Z,37.4
2018-03-04T23:52:50.000Z,37.7
